sensor_id;sensor_type;location;lat;lon;timestamp;pressure;altitude;pressure_sealevel;temperature;humidity
47166;BME280;32930;51.112;13.762;2022-11-20T00:01:16;99021.06;;;-1.26;73.08
47166;BME280;32930;51.112;13.762;2022-11-20T00:03:43;99020.81;;;-1.32;73.17
47166;BME280;32930;51.112;13.762;2022-11-20T00:06:11;99015.16;;;-1.27;73.09
47166;BME280;32930;51.112;13.762;2022-11-20T00:08:37;99014.25;;;-1.09;73.30
47166;BME280;32930;51.112;13.762;2022-11-20T00:11:09;99017.38;;;-1.15;73.45
47166;BME280;32930;51.112;13.762;2022-11-20T00:13:36;99008.28;;;-1.11;73.31
47166;BME280;32930;51.112;13.762;2022-11-20T00:16:03;99008.38;;;-1.10;73.46
47166;BME280;32930;51.112;13.762;2022-11-20T00:18:30;99004.38;;;-1.05;73.89
47166;BME280;32930;51.112;13.762;2022-11-20T00:21:07;98999.06;;;-1.11;74.16
47166;BME280;32930;51.112;13.762;2022-11-20T00:23:34;98997.31;;;-1.13;74.20
47166;BME280;32930;51.112;13.762;2022-11-20T00:26:09;99006.16;;;-1.02;74.03
47166;BME280;32930;51.112;13.762;2022-11-20T00:28:35;99010.41;;;-1.21;73.85
47166;BME280;32930;51.112;13.762;2022-11-20T00:31:13;99012.75;;;-1.25;73.70
47166;BME280;32930;51.112;13.762;2022-11-20T00:33:40;99012.53;;;-1.30;73.62
47166;BME280;32930;51.112;13.762;2022-11-20T00:36:09;99010.94;;;-1.28;73.90
47166;BME280;32930;51.112;13.762;2022-11-20T00:38:35;99016.91;;;-1.26;74.42
47166;BME280;32930;51.112;13.762;2022-11-20T00:41:03;99021.69;;;-1.32;73.93
47166;BME280;32930;51.112;13.762;2022-11-20T00:43:29;99018.34;;;-1.31;73.86
47166;BME280;32930;51.112;13.762;2022-11-20T00:46:00;99025.25;;;-1.27;73.79
47166;BME280;32930;51.112;13.762;2022-11-20T00:48:26;99029.31;;;-1.48;73.34
47166;BME280;32930;51.112;13.762;2022-11-20T00:50:52;99032.38;;;-1.36;74.10
47166;BME280;32930;51.112;13.762;2022-11-20T00:53:18;99038.34;;;-1.34;73.52
47166;BME280;32930;51.112;13.762;2022-11-20T00:55:55;99029.22;;;-1.32;73.80
47166;BME280;32930;51.112;13.762;2022-11-20T00:58:23;99030.41;;;-1.43;73.79
47166;BME280;32930;51.112;13.762;2022-11-20T01:00:49;99032.06;;;-1.44;73.78
47166;BME280;32930;51.112;13.762;2022-11-20T01:03:18;99038.63;;;-1.47;73.80
47166;BME280;32930;51.112;13.762;2022-11-20T01:05:43;99040.47;;;-1.43;73.66
47166;BME280;32930;51.112;13.762;2022-11-20T01:08:09;99027.88;;;-1.43;73.50
47166;BME280;32930;51.112;13.762;2022-11-20T01:10:35;99032.00;;;-1.26;74.06
47166;BME280;32930;51.112;13.762;2022-11-20T01:13:00;99035.13;;;-1.31;73.94
47166;BME280;32930;51.112;13.762;2022-11-20T01:15:44;99028.03;;;-1.40;73.64
47166;BME280;32930;51.112;13.762;2022-11-20T01:18:10;99028.16;;;-1.37;74.11
47166;BME280;32930;51.112;13.762;2022-11-20T01:20:36;99031.25;;;-1.43;73.79
47166;BME280;32930;51.112;13.762;2022-11-20T01:23:03;99028.75;;;-1.43;73.77
47166;BME280;32930;51.112;13.762;2022-11-20T01:25:29;99026.22;;;-1.43;73.92
47166;BME280;32930;51.112;13.762;2022-11-20T01:27:55;99026.94;;;-1.45;73.54
47166;BME280;32930;51.112;13.762;2022-11-20T01:30:21;99030.63;;;-1.38;73.74
47166;BME280;32930;51.112;13.762;2022-11-20T01:32:46;99025.03;;;-1.51;73.75
47166;BME280;32930;51.112;13.762;2022-11-20T01:35:12;99014.84;;;-1.54;73.88
47166;BME280;32930;51.112;13.762;2022-11-20T01:37:38;99023.44;;;-1.49;73.28
47166;BME280;32930;51.112;13.762;2022-11-20T01:40:04;99018.69;;;-1.43;73.14
47166;BME280;32930;51.112;13.762;2022-11-20T01:42:29;99016.38;;;-1.57;73.47
47166;BME280;32930;51.112;13.762;2022-11-20T01:48:19;99012.06;;;-1.41;73.64
47166;BME280;32930;51.112;13.762;2022-11-20T01:50:48;99013.06;;;-1.56;73.54
47166;BME280;32930;51.112;13.762;2022-11-20T01:53:18;99005.56;;;-1.55;73.57
47166;BME280;32930;51.112;13.762;2022-11-20T01:55:52;98998.28;;;-1.49;73.51
47166;BME280;32930;51.112;13.762;2022-11-20T01:58:23;98995.44;;;-1.56;73.46
47166;BME280;32930;51.112;13.762;2022-11-20T02:00:50;98992.13;;;-1.55;73.75
47166;BME280;32930;51.112;13.762;2022-11-20T02:03:19;98987.91;;;-1.56;73.21
47166;BME280;32930;51.112;13.762;2022-11-20T02:06:06;98999.22;;;-1.66;73.35
47166;BME280;32930;51.112;13.762;2022-11-20T02:08:36;98990.53;;;-1.73;72.86
47166;BME280;32930;51.112;13.762;2022-11-20T02:11:02;98999.53;;;-1.58;73.17
47166;BME280;32930;51.112;13.762;2022-11-20T02:13:28;98999.34;;;-1.63;73.36
47166;BME280;32930;51.112;13.762;2022-11-20T02:18:42;98989.69;;;-1.73;73.59
47166;BME280;32930;51.112;13.762;2022-11-20T02:24:18;98988.44;;;-1.64;73.47
47166;BME280;32930;51.112;13.762;2022-11-20T02:26:55;98986.41;;;-1.71;73.23
47166;BME280;32930;51.112;13.762;2022-11-20T02:30:07;98985.66;;;-1.70;72.98
47166;BME280;32930;51.112;13.762;2022-11-20T02:32:37;98991.31;;;-1.74;72.36
47166;BME280;32930;51.112;13.762;2022-11-20T02:37:49;98987.81;;;-1.77;72.78
47166;BME280;32930;51.112;13.762;2022-11-20T02:40:16;98984.81;;;-1.88;72.86
47166;BME280;32930;51.112;13.762;2022-11-20T02:42:42;98985.38;;;-1.76;72.59
47166;BME280;32930;51.112;13.762;2022-11-20T02:45:08;98984.16;;;-1.84;72.76
47166;BME280;32930;51.112;13.762;2022-11-20T02:47:34;98982.31;;;-1.88;72.88
47166;BME280;32930;51.112;13.762;2022-11-20T02:49:59;98983.50;;;-1.80;72.84
47166;BME280;32930;51.112;13.762;2022-11-20T02:52:25;98986.22;;;-1.75;72.90
47166;BME280;32930;51.112;13.762;2022-11-20T02:54:51;98989.72;;;-1.91;72.76
47166;BME280;32930;51.112;13.762;2022-11-20T02:57:17;98987.03;;;-1.76;72.59
47166;BME280;32930;51.112;13.762;2022-11-20T02:59:42;98981.47;;;-1.89;72.54
47166;BME280;32930;51.112;13.762;2022-11-20T03:02:10;98974.38;;;-1.78;72.74
47166;BME280;32930;51.112;13.762;2022-11-20T03:04:38;98984.44;;;-1.78;72.46
47166;BME280;32930;51.112;13.762;2022-11-20T03:07:04;98980.72;;;-1.86;72.70
47166;BME280;32930;51.112;13.762;2022-11-20T03:09:29;98979.94;;;-1.85;72.37
47166;BME280;32930;51.112;13.762;2022-11-20T03:11:55;98980.19;;;-1.98;72.40
47166;BME280;32930;51.112;13.762;2022-11-20T03:14:21;98965.59;;;-2.05;72.18
47166;BME280;32930;51.112;13.762;2022-11-20T03:16:46;98970.66;;;-1.86;72.58
47166;BME280;32930;51.112;13.762;2022-11-20T03:19:15;98970.41;;;-1.92;72.29
47166;BME280;32930;51.112;13.762;2022-11-20T03:21:40;98969.84;;;-2.04;72.42
47166;BME280;32930;51.112;13.762;2022-11-20T03:24:06;98961.69;;;-1.99;72.30
47166;BME280;32930;51.112;13.762;2022-11-20T03:26:32;98972.41;;;-2.03;71.87
47166;BME280;32930;51.112;13.762;2022-11-20T03:29:00;98960.50;;;-2.07;72.42
47166;BME280;32930;51.112;13.762;2022-11-20T03:31:32;98955.19;;;-1.95;72.16
47166;BME280;32930;51.112;13.762;2022-11-20T03:33:59;98955.75;;;-2.01;72.11
47166;BME280;32930;51.112;13.762;2022-11-20T03:36:26;98950.31;;;-1.92;72.16
47166;BME280;32930;51.112;13.762;2022-11-20T03:38:54;98952.53;;;-1.98;71.80
47166;BME280;32930;51.112;13.762;2022-11-20T03:41:26;98962.72;;;-1.95;72.03
47166;BME280;32930;51.112;13.762;2022-11-20T03:43:56;98965.69;;;-2.04;72.48
47166;BME280;32930;51.112;13.762;2022-11-20T03:46:23;98961.66;;;-2.00;72.40
47166;BME280;32930;51.112;13.762;2022-11-20T03:48:49;98963.44;;;-1.98;72.73
47166;BME280;32930;51.112;13.762;2022-11-20T03:51:22;98960.06;;;-1.98;72.32
47166;BME280;32930;51.112;13.762;2022-11-20T03:53:50;98966.00;;;-1.96;71.86
47166;BME280;32930;51.112;13.762;2022-11-20T03:56:17;98973.56;;;-1.96;72.36
47166;BME280;32930;51.112;13.762;2022-11-20T03:58:44;98966.69;;;-2.00;71.98
47166;BME280;32930;51.112;13.762;2022-11-20T04:01:15;98971.84;;;-1.97;72.43
47166;BME280;32930;51.112;13.762;2022-11-20T04:03:42;98967.81;;;-1.94;72.36
47166;BME280;32930;51.112;13.762;2022-11-20T04:06:11;98958.47;;;-1.96;72.68
47166;BME280;32930;51.112;13.762;2022-11-20T04:08:38;98961.06;;;-1.95;72.99
47166;BME280;32930;51.112;13.762;2022-11-20T04:11:11;98959.41;;;-1.94;73.11
47166;BME280;32930;51.112;13.762;2022-11-20T04:13:37;98951.88;;;-1.94;72.80
47166;BME280;32930;51.112;13.762;2022-11-20T04:16:04;98953.41;;;-1.98;72.99
47166;BME280;32930;51.112;13.762;2022-11-20T04:18:30;98956.22;;;-2.10;72.76
47166;BME280;32930;51.112;13.762;2022-11-20T04:20:57;98948.69;;;-1.90;72.84
47166;BME280;32930;51.112;13.762;2022-11-20T04:23:23;98945.31;;;-1.91;72.73
47166;BME280;32930;51.112;13.762;2022-11-20T04:25:48;98939.41;;;-2.11;72.14
47166;BME280;32930;51.112;13.762;2022-11-20T04:28:14;98938.19;;;-2.19;72.53
47166;BME280;32930;51.112;13.762;2022-11-20T04:30:39;98938.84;;;-2.23;72.61
47166;BME280;32930;51.112;13.762;2022-11-20T04:33:06;98939.28;;;-2.14;72.32
47166;BME280;32930;51.112;13.762;2022-11-20T04:35:36;98933.97;;;-2.20;72.21
47166;BME280;32930;51.112;13.762;2022-11-20T04:38:02;98931.03;;;-2.29;72.28
47166;BME280;32930;51.112;13.762;2022-11-20T04:40:30;98923.25;;;-2.16;72.39
47166;BME280;32930;51.112;13.762;2022-11-20T04:42:56;98923.16;;;-1.99;72.39
47166;BME280;32930;51.112;13.762;2022-11-20T04:45:22;98928.84;;;-2.03;72.49
47166;BME280;32930;51.112;13.762;2022-11-20T04:47:49;98926.78;;;-1.93;72.35
47166;BME280;32930;51.112;13.762;2022-11-20T04:50:15;98920.09;;;-2.12;72.38
47166;BME280;32930;51.112;13.762;2022-11-20T04:52:41;98929.16;;;-1.96;72.28
47166;BME280;32930;51.112;13.762;2022-11-20T04:55:07;98930.81;;;-2.16;72.81
47166;BME280;32930;51.112;13.762;2022-11-20T04:57:33;98927.44;;;-2.16;72.53
47166;BME280;32930;51.112;13.762;2022-11-20T05:00:01;98935.53;;;-2.04;72.48
47166;BME280;32930;51.112;13.762;2022-11-20T05:02:32;98935.84;;;-1.96;72.25
47166;BME280;32930;51.112;13.762;2022-11-20T05:04:58;98935.31;;;-2.08;72.08
47166;BME280;32930;51.112;13.762;2022-11-20T05:07:23;98940.13;;;-2.13;72.09
47166;BME280;32930;51.112;13.762;2022-11-20T05:12:22;98942.28;;;-2.21;71.83
47166;BME280;32930;51.112;13.762;2022-11-20T05:14:47;98936.91;;;-2.11;72.05
47166;BME280;32930;51.112;13.762;2022-11-20T05:17:13;98941.66;;;-2.35;71.91
47166;BME280;32930;51.112;13.762;2022-11-20T05:19:40;98938.16;;;-2.20;71.93
47166;BME280;32930;51.112;13.762;2022-11-20T05:22:06;98937.19;;;-2.22;72.26
47166;BME280;32930;51.112;13.762;2022-11-20T05:24:31;98939.44;;;-2.28;71.50
47166;BME280;32930;51.112;13.762;2022-11-20T05:26:57;98938.56;;;-2.29;72.15
47166;BME280;32930;51.112;13.762;2022-11-20T05:29:22;98929.28;;;-2.12;71.89
47166;BME280;32930;51.112;13.762;2022-11-20T05:31:48;98933.13;;;-2.20;71.65
47166;BME280;32930;51.112;13.762;2022-11-20T05:34:14;98933.13;;;-2.38;71.16
47166;BME280;32930;51.112;13.762;2022-11-20T05:36:39;98932.03;;;-2.43;71.07
47166;BME280;32930;51.112;13.762;2022-11-20T05:39:05;98926.03;;;-2.47;71.49
47166;BME280;32930;51.112;13.762;2022-11-20T05:41:30;98925.72;;;-2.35;71.63
47166;BME280;32930;51.112;13.762;2022-11-20T05:43:58;98924.16;;;-2.33;71.24
47166;BME280;32930;51.112;13.762;2022-11-20T05:46:24;98921.13;;;-2.26;71.06
47166;BME280;32930;51.112;13.762;2022-11-20T05:48:50;98924.50;;;-2.43;71.23
47166;BME280;32930;51.112;13.762;2022-11-20T05:51:19;98921.44;;;-2.38;70.82
47166;BME280;32930;51.112;13.762;2022-11-20T05:53:47;98917.84;;;-2.43;70.83
47166;BME280;32930;51.112;13.762;2022-11-20T05:56:16;98924.44;;;-2.27;71.33
47166;BME280;32930;51.112;13.762;2022-11-20T05:58:46;98918.72;;;-2.42;71.38
47166;BME280;32930;51.112;13.762;2022-11-20T06:03:46;98916.34;;;-2.39;70.87
47166;BME280;32930;51.112;13.762;2022-11-20T06:06:13;98906.31;;;-2.57;70.90
47166;BME280;32930;51.112;13.762;2022-11-20T06:08:40;98912.31;;;-2.53;70.91
47166;BME280;32930;51.112;13.762;2022-11-20T06:11:08;98915.97;;;-2.47;71.58
47166;BME280;32930;51.112;13.762;2022-11-20T06:13:34;98917.34;;;-2.36;72.15
47166;BME280;32930;51.112;13.762;2022-11-20T06:16:00;98919.19;;;-2.31;71.66
47166;BME280;32930;51.112;13.762;2022-11-20T06:18:27;98912.19;;;-2.39;71.42
47166;BME280;32930;51.112;13.762;2022-11-20T06:21:05;98909.09;;;-2.33;71.73
47166;BME280;32930;51.112;13.762;2022-11-20T06:23:33;98899.53;;;-2.40;71.91
47166;BME280;32930;51.112;13.762;2022-11-20T06:26:04;98907.72;;;-2.44;71.18
47166;BME280;32930;51.112;13.762;2022-11-20T06:31:03;98895.78;;;-2.30;71.96
47166;BME280;32930;51.112;13.762;2022-11-20T06:33:29;98897.25;;;-2.36;71.92
47166;BME280;32930;51.112;13.762;2022-11-20T06:36:18;98897.41;;;-2.33;72.03
47166;BME280;32930;51.112;13.762;2022-11-20T06:43:59;98899.34;;;-2.27;72.29
47166;BME280;32930;51.112;13.762;2022-11-20T06:46:24;98908.16;;;-2.35;71.92
47166;BME280;32930;51.112;13.762;2022-11-20T06:48:50;98907.44;;;-2.33;72.06
47166;BME280;32930;51.112;13.762;2022-11-20T06:51:17;98901.50;;;-2.15;72.11
47166;BME280;32930;51.112;13.762;2022-11-20T06:53:43;98899.69;;;-2.37;72.01
47166;BME280;32930;51.112;13.762;2022-11-20T06:56:09;98898.69;;;-2.41;71.48
47166;BME280;32930;51.112;13.762;2022-11-20T06:58:36;98896.03;;;-2.26;71.79
47166;BME280;32930;51.112;13.762;2022-11-20T07:01:13;98894.41;;;-2.24;72.01
47166;BME280;32930;51.112;13.762;2022-11-20T07:03:40;98899.38;;;-2.25;72.04
47166;BME280;32930;51.112;13.762;2022-11-20T07:06:06;98891.00;;;-2.26;72.04
47166;BME280;32930;51.112;13.762;2022-11-20T07:08:32;98894.22;;;-2.28;71.75
47166;BME280;32930;51.112;13.762;2022-11-20T07:11:00;98891.28;;;-2.38;72.06
47166;BME280;32930;51.112;13.762;2022-11-20T07:13:27;98897.03;;;-2.40;72.34
47166;BME280;32930;51.112;13.762;2022-11-20T07:15:53;98883.19;;;-2.32;72.51
47166;BME280;32930;51.112;13.762;2022-11-20T07:18:19;98888.06;;;-2.35;72.39
47166;BME280;32930;51.112;13.762;2022-11-20T07:20:44;98889.28;;;-2.27;72.54
47166;BME280;32930;51.112;13.762;2022-11-20T07:23:10;98889.16;;;-2.30;72.35
47166;BME280;32930;51.112;13.762;2022-11-20T07:25:35;98893.50;;;-2.26;72.28
47166;BME280;32930;51.112;13.762;2022-11-20T07:28:01;98882.25;;;-2.15;72.40
47166;BME280;32930;51.112;13.762;2022-11-20T07:30:28;98889.88;;;-2.13;73.12
47166;BME280;32930;51.112;13.762;2022-11-20T07:35:30;98891.16;;;-1.84;72.97
47166;BME280;32930;51.112;13.762;2022-11-20T07:37:55;98889.84;;;-1.95;73.69
47166;BME280;32930;51.112;13.762;2022-11-20T07:40:21;98890.28;;;-2.04;73.53
47166;BME280;32930;51.112;13.762;2022-11-20T07:42:52;98889.38;;;-1.87;73.69
47166;BME280;32930;51.112;13.762;2022-11-20T07:45:19;98883.88;;;-1.78;73.49
47166;BME280;32930;51.112;13.762;2022-11-20T07:50:20;98886.13;;;-1.84;73.77
47166;BME280;32930;51.112;13.762;2022-11-20T07:52:46;98892.38;;;-1.76;73.91
47166;BME280;32930;51.112;13.762;2022-11-20T07:55:11;98890.88;;;-1.71;73.75
47166;BME280;32930;51.112;13.762;2022-11-20T07:57:37;98882.97;;;-1.60;73.68
47166;BME280;32930;51.112;13.762;2022-11-20T08:00:07;98874.16;;;-1.51;73.77
47166;BME280;32930;51.112;13.762;2022-11-20T08:02:38;98886.22;;;-1.63;74.25
47166;BME280;32930;51.112;13.762;2022-11-20T08:05:05;98869.03;;;-1.52;73.39
47166;BME280;32930;51.112;13.762;2022-11-20T08:07:38;98865.38;;;-1.40;73.24
47166;BME280;32930;51.112;13.762;2022-11-20T08:10:04;98872.22;;;-1.16;73.33
47166;BME280;32930;51.112;13.762;2022-11-20T08:12:30;98874.34;;;-1.04;73.20
47166;BME280;32930;51.112;13.762;2022-11-20T08:15:14;98877.69;;;-1.05;73.23
47166;BME280;32930;51.112;13.762;2022-11-20T08:17:39;98873.25;;;-0.90;72.84
47166;BME280;32930;51.112;13.762;2022-11-20T08:20:05;98876.22;;;-1.00;73.55
47166;BME280;32930;51.112;13.762;2022-11-20T08:25:03;98857.81;;;-0.56;72.02
47166;BME280;32930;51.112;13.762;2022-11-20T08:27:31;98861.75;;;-0.40;71.99
47166;BME280;32930;51.112;13.762;2022-11-20T08:29:57;98868.16;;;-0.26;71.21
47166;BME280;32930;51.112;13.762;2022-11-20T08:32:22;98864.19;;;-0.41;73.42
47166;BME280;32930;51.112;13.762;2022-11-20T08:34:48;98866.91;;;-0.37;72.59
47166;BME280;32930;51.112;13.762;2022-11-20T08:37:13;98863.91;;;-0.27;71.69
47166;BME280;32930;51.112;13.762;2022-11-20T08:39:39;98868.44;;;-0.18;71.43
47166;BME280;32930;51.112;13.762;2022-11-20T08:42:07;98862.81;;;-0.11;72.12
47166;BME280;32930;51.112;13.762;2022-11-20T08:44:33;98868.22;;;-0.24;72.67
47166;BME280;32930;51.112;13.762;2022-11-20T08:47:00;98864.78;;;0.44;82.54
47166;BME280;32930;51.112;13.762;2022-11-20T08:49:25;98862.13;;;0.41;76.26
47166;BME280;32930;51.112;13.762;2022-11-20T08:51:51;98863.63;;;0.12;74.67
47166;BME280;32930;51.112;13.762;2022-11-20T08:54:18;98863.16;;;0.22;74.22
47166;BME280;32930;51.112;13.762;2022-11-20T08:56:47;98854.09;;;0.53;73.40
47166;BME280;32930;51.112;13.762;2022-11-20T08:59:12;98854.59;;;0.43;73.32
47166;BME280;32930;51.112;13.762;2022-11-20T09:01:38;98841.38;;;0.25;74.28
47166;BME280;32930;51.112;13.762;2022-11-20T09:06:42;98841.16;;;0.68;72.14
47166;BME280;32930;51.112;13.762;2022-11-20T09:09:07;98837.25;;;0.52;73.27
47166;BME280;32930;51.112;13.762;2022-11-20T09:11:34;98828.44;;;0.39;72.73
47166;BME280;32930;51.112;13.762;2022-11-20T09:14:01;98832.00;;;0.46;74.64
47166;BME280;32930;51.112;13.762;2022-11-20T09:16:27;98819.06;;;0.61;73.94
47166;BME280;32930;51.112;13.762;2022-11-20T09:18:53;98825.09;;;0.66;73.68
47166;BME280;32930;51.112;13.762;2022-11-20T09:21:19;98822.28;;;0.82;72.67
47166;BME280;32930;51.112;13.762;2022-11-20T09:23:44;98822.97;;;0.78;73.35
47166;BME280;32930;51.112;13.762;2022-11-20T09:26:20;98822.06;;;1.03;71.45
47166;BME280;32930;51.112;13.762;2022-11-20T09:28:56;98811.97;;;1.03;70.46
47166;BME280;32930;51.112;13.762;2022-11-20T09:31:23;98820.38;;;1.02;71.51
47166;BME280;32930;51.112;13.762;2022-11-20T09:33:49;98822.47;;;0.88;73.58
47166;BME280;32930;51.112;13.762;2022-11-20T09:36:15;98832.19;;;1.03;72.19
47166;BME280;32930;51.112;13.762;2022-11-20T09:38:42;98831.47;;;1.07;73.05
47166;BME280;32930;51.112;13.762;2022-11-20T09:46:47;98825.53;;;1.07;69.61
47166;BME280;32930;51.112;13.762;2022-11-20T09:52:40;98818.69;;;1.30;68.82
47166;BME280;32930;51.112;13.762;2022-11-20T09:57:51;98810.41;;;1.35;67.44
47166;BME280;32930;51.112;13.762;2022-11-20T10:00:18;98810.94;;;1.24;71.48
47166;BME280;32930;51.112;13.762;2022-11-20T10:03:00;98800.94;;;1.28;70.45
47166;BME280;32930;51.112;13.762;2022-11-20T10:05:40;98799.97;;;1.23;70.05
47166;BME280;32930;51.112;13.762;2022-11-20T10:22:10;98795.53;;;1.45;66.40
47166;BME280;32930;51.112;13.762;2022-11-20T10:30:11;98784.50;;;1.71;67.51
47166;BME280;32930;51.112;13.762;2022-11-20T10:32:45;98792.81;;;1.67;68.43
47166;BME280;32930;51.112;13.762;2022-11-20T10:38:05;98782.75;;;2.00;67.61
47166;BME280;32930;51.112;13.762;2022-11-20T10:43:24;98779.56;;;2.07;65.30
47166;BME280;32930;51.112;13.762;2022-11-20T10:46:01;98781.34;;;2.10;65.69
47166;BME280;32930;51.112;13.762;2022-11-20T10:48:36;98778.59;;;2.34;65.57
47166;BME280;32930;51.112;13.762;2022-11-20T11:01:27;98777.22;;;2.14;66.62
47166;BME280;32930;51.112;13.762;2022-11-20T11:03:55;98777.41;;;2.21;65.10
47166;BME280;32930;51.112;13.762;2022-11-20T11:06:42;98774.81;;;1.87;68.04
47166;BME280;32930;51.112;13.762;2022-11-20T11:09:17;98769.66;;;2.15;66.00
47166;BME280;32930;51.112;13.762;2022-11-20T11:11:46;98770.53;;;2.17;68.37
47166;BME280;32930;51.112;13.762;2022-11-20T11:14:13;98764.53;;;2.12;67.76
47166;BME280;32930;51.112;13.762;2022-11-20T11:16:57;98756.25;;;2.18;69.22
47166;BME280;32930;51.112;13.762;2022-11-20T11:19:23;98750.53;;;2.26;68.81
47166;BME280;32930;51.112;13.762;2022-11-20T11:21:53;98746.94;;;2.51;65.28
47166;BME280;32930;51.112;13.762;2022-11-20T11:24:28;98745.00;;;2.41;66.52
47166;BME280;32930;51.112;13.762;2022-11-20T11:26:57;98738.78;;;2.62;66.53
47166;BME280;32930;51.112;13.762;2022-11-20T11:29:25;98737.19;;;2.67;67.01
47166;BME280;32930;51.112;13.762;2022-11-20T11:32:11;98734.25;;;2.86;65.54
47166;BME280;32930;51.112;13.762;2022-11-20T11:34:40;98729.09;;;2.82;65.39
47166;BME280;32930;51.112;13.762;2022-11-20T11:37:15;98730.50;;;3.07;66.10
47166;BME280;32930;51.112;13.762;2022-11-20T11:39:43;98730.38;;;3.00;66.76
47166;BME280;32930;51.112;13.762;2022-11-20T11:42:17;98723.53;;;2.98;67.38
47166;BME280;32930;51.112;13.762;2022-11-20T11:44:47;98722.03;;;3.06;65.49
47166;BME280;32930;51.112;13.762;2022-11-20T11:47:32;98709.38;;;3.06;67.62
47166;BME280;32930;51.112;13.762;2022-11-20T11:52:53;98705.38;;;3.17;66.53
47166;BME280;32930;51.112;13.762;2022-11-20T12:00:50;98696.28;;;3.27;68.02
47166;BME280;32930;51.112;13.762;2022-11-20T12:03:36;98706.94;;;3.11;68.74
47166;BME280;32930;51.112;13.762;2022-11-20T12:06:14;98695.03;;;3.07;69.81
47166;BME280;32930;51.112;13.762;2022-11-20T12:09:02;98683.66;;;3.30;66.68
47166;BME280;32930;51.112;13.762;2022-11-20T12:14:17;98687.31;;;3.02;69.91
47166;BME280;32930;51.112;13.762;2022-11-20T12:16:46;98689.25;;;3.12;71.39
47166;BME280;32930;51.112;13.762;2022-11-20T12:19:13;98688.75;;;3.30;69.53
47166;BME280;32930;51.112;13.762;2022-11-20T12:30:11;98688.69;;;3.27;69.12
47166;BME280;32930;51.112;13.762;2022-11-20T12:35:52;98687.06;;;3.31;68.57
47166;BME280;32930;51.112;13.762;2022-11-20T12:50:37;98677.84;;;3.34;72.88
47166;BME280;32930;51.112;13.762;2022-11-20T13:01:56;98690.97;;;3.15;70.31
47166;BME280;32930;51.112;13.762;2022-11-20T13:09:51;98697.81;;;2.79;74.23
47166;BME280;32930;51.112;13.762;2022-11-20T13:12:29;98694.16;;;2.67;74.43
47166;BME280;32930;51.112;13.762;2022-11-20T13:18:10;98685.69;;;2.66;76.33
47166;BME280;32930;51.112;13.762;2022-11-20T13:20:42;98685.25;;;2.84;76.28
47166;BME280;32930;51.112;13.762;2022-11-20T13:23:08;98686.53;;;2.65;76.65
47166;BME280;32930;51.112;13.762;2022-11-20T13:25:36;98680.84;;;2.75;76.26
47166;BME280;32930;51.112;13.762;2022-11-20T13:30:55;98673.06;;;2.68;76.64
47166;BME280;32930;51.112;13.762;2022-11-20T13:33:36;98661.50;;;2.79;76.62
47166;BME280;32930;51.112;13.762;2022-11-20T13:36:19;98660.47;;;2.71;76.69
47166;BME280;32930;51.112;13.762;2022-11-20T13:38:51;98667.13;;;2.66;76.98
47166;BME280;32930;51.112;13.762;2022-11-20T13:41:32;98670.97;;;2.88;75.51
47166;BME280;32930;51.112;13.762;2022-11-20T13:46:39;98665.59;;;2.72;75.44
47166;BME280;32930;51.112;13.762;2022-11-20T13:49:18;98673.59;;;2.53;76.40
47166;BME280;32930;51.112;13.762;2022-11-20T13:51:48;98665.81;;;2.45;76.40
47166;BME280;32930;51.112;13.762;2022-11-20T13:54:40;98667.69;;;2.54;74.86
47166;BME280;32930;51.112;13.762;2022-11-20T14:02:15;98667.19;;;2.32;75.18
47166;BME280;32930;51.112;13.762;2022-11-20T14:04:45;98665.44;;;2.30;75.90
47166;BME280;32930;51.112;13.762;2022-11-20T14:07:12;98668.09;;;2.35;76.19
47166;BME280;32930;51.112;13.762;2022-11-20T14:09:38;98666.47;;;2.37;76.12
47166;BME280;32930;51.112;13.762;2022-11-20T14:12:12;98669.88;;;2.39;75.78
47166;BME280;32930;51.112;13.762;2022-11-20T14:14:50;98674.25;;;2.46;76.24
47166;BME280;32930;51.112;13.762;2022-11-20T14:17:29;98669.03;;;2.38;76.35
47166;BME280;32930;51.112;13.762;2022-11-20T14:22:28;98663.25;;;2.44;76.82
47166;BME280;32930;51.112;13.762;2022-11-20T14:27:40;98664.09;;;2.44;76.55
47166;BME280;32930;51.112;13.762;2022-11-20T14:30:19;98660.72;;;2.44;75.80
47166;BME280;32930;51.112;13.762;2022-11-20T14:32:49;98661.13;;;2.24;75.91
47166;BME280;32930;51.112;13.762;2022-11-20T14:35:24;98672.09;;;2.26;76.50
47166;BME280;32930;51.112;13.762;2022-11-20T14:37:51;98672.84;;;2.21;76.32
47166;BME280;32930;51.112;13.762;2022-11-20T14:42:53;98674.41;;;2.17;76.13
47166;BME280;32930;51.112;13.762;2022-11-20T14:45:21;98670.72;;;2.03;76.17
47166;BME280;32930;51.112;13.762;2022-11-20T14:47:48;98669.09;;;2.05;76.35
47166;BME280;32930;51.112;13.762;2022-11-20T14:50:24;98662.19;;;1.99;75.85
47166;BME280;32930;51.112;13.762;2022-11-20T14:52:55;98652.03;;;1.98;76.23
47166;BME280;32930;51.112;13.762;2022-11-20T14:55:26;98662.19;;;1.99;76.28
47166;BME280;32930;51.112;13.762;2022-11-20T14:57:56;98650.47;;;2.03;76.44
47166;BME280;32930;51.112;13.762;2022-11-20T15:00:22;98649.34;;;1.92;75.95
47166;BME280;32930;51.112;13.762;2022-11-20T15:02:50;98651.78;;;1.87;76.64
47166;BME280;32930;51.112;13.762;2022-11-20T15:05:18;98651.53;;;1.78;77.41
47166;BME280;32930;51.112;13.762;2022-11-20T15:07:51;98650.72;;;1.79;77.88
47166;BME280;32930;51.112;13.762;2022-11-20T15:10:26;98646.25;;;1.70;78.04
47166;BME280;32930;51.112;13.762;2022-11-20T15:12:54;98651.03;;;1.91;76.64
47166;BME280;32930;51.112;13.762;2022-11-20T15:15:36;98650.59;;;1.74;76.92
47166;BME280;32930;51.112;13.762;2022-11-20T15:18:12;98647.16;;;1.72;77.08
47166;BME280;32930;51.112;13.762;2022-11-20T15:20:41;98643.81;;;1.73;76.98
47166;BME280;32930;51.112;13.762;2022-11-20T15:23:18;98644.66;;;1.72;77.13
47166;BME280;32930;51.112;13.762;2022-11-20T15:25:45;98637.13;;;1.74;77.01
47166;BME280;32930;51.112;13.762;2022-11-20T15:28:27;98634.75;;;1.80;76.65
47166;BME280;32930;51.112;13.762;2022-11-20T15:30:54;98637.66;;;1.63;77.43
47166;BME280;32930;51.112;13.762;2022-11-20T15:33:21;98632.91;;;1.74;76.58
47166;BME280;32930;51.112;13.762;2022-11-20T15:35:47;98632.84;;;1.73;76.89